createdAt,value
2019-01-03T00:01:25.169Z,4.43
2019-01-03T00:04:20.045Z,4.77
2019-01-03T00:07:04.496Z,4.53
2019-01-03T00:09:51.658Z,5.73
2019-01-03T00:12:56.163Z,4.17
2019-01-03T00:15:42.979Z,3.80
2019-01-03T00:18:30.090Z,5.47
2019-01-03T00:21:17.179Z,6.43
2019-01-03T00:24:04.328Z,9.37
2019-01-03T00:26:59.265Z,4.60
2019-01-03T00:30:02.701Z,8.43
2019-01-03T00:32:56.733Z,5.57
2019-01-03T00:35:57.142Z,6.30
2019-01-03T00:39:03.633Z,4.10
2019-01-03T00:41:53.655Z,7.23
2019-01-03T00:44:44.505Z,3.97
2019-01-03T00:47:48.047Z,4.03
2019-01-03T00:50:51.433Z,3.87
2019-01-03T00:53:34.320Z,5.80
2019-01-03T00:56:34.686Z,6.10
2019-01-03T00:59:23.619Z,5.40
2019-01-03T01:02:13.502Z,4.23
2019-01-03T01:05:00.496Z,4.87
2019-01-03T01:08:06.442Z,4.37
2019-01-03T01:10:54.612Z,5.10
2019-01-03T01:13:41.422Z,4.93
2019-01-03T01:16:28.282Z,4.23
2019-01-03T01:19:34.898Z,3.87
2019-01-03T01:22:40.915Z,4.63
2019-01-03T01:25:26.763Z,7.70
2019-01-03T01:28:21.448Z,7.77
2019-01-03T01:31:09.778Z,9.57
2019-01-03T01:33:56.955Z,4.57
2019-01-03T01:36:43.998Z,4.17
2019-01-03T01:39:47.506Z,7.10
2019-01-03T13:29:15.805Z,8.37
2019-01-03T13:31:45.285Z,12.97
2019-01-03T13:34:14.541Z,6.67
2019-01-03T13:36:43.879Z,9.50
2019-01-03T13:39:13.125Z,9.87
2019-01-03T13:41:42.432Z,8.93
2019-01-03T13:44:11.763Z,9.43
2019-01-03T13:46:40.999Z,10.57
2019-01-03T13:49:10.241Z,7.00
2019-01-03T13:51:39.544Z,6.93
2019-01-03T13:54:08.701Z,7.47
2019-01-03T13:56:37.991Z,8.03
2019-01-03T13:59:07.229Z,7.77
2019-01-03T14:01:36.378Z,9.50
2019-01-03T14:04:05.620Z,8.83
2019-01-03T14:06:34.911Z,9.37
2019-01-03T14:09:05.649Z,8.50
2019-01-03T14:11:34.983Z,7.57
2019-01-03T14:14:04.301Z,7.10
2019-01-03T14:16:33.637Z,9.37
2019-01-03T14:19:02.910Z,8.53
2019-01-03T14:21:32.118Z,8.10
2019-01-03T14:24:01.457Z,7.53
2019-01-03T14:26:30.872Z,11.43
2019-01-03T14:29:00.163Z,11.17
2019-01-03T14:31:29.515Z,7.63
2019-01-03T14:33:58.872Z,10.43
2019-01-03T14:36:28.456Z,8.33
2019-01-03T14:38:57.819Z,8.23
2019-01-03T14:41:27.051Z,11.80
2019-01-03T14:43:56.435Z,8.60
2019-01-03T14:46:25.761Z,9.30
2019-01-03T14:48:54.976Z,8.17
2019-01-03T14:51:24.213Z,9.90
2019-01-03T14:53:53.594Z,17.73
2019-01-03T14:56:23.024Z,9.97
2019-01-03T14:58:52.478Z,9.83
2019-01-03T15:01:21.784Z,12.20
2019-01-03T15:03:51.118Z,8.67
2019-01-03T15:06:20.236Z,11.33
2019-01-03T15:08:49.504Z,13.43
2019-01-03T15:11:18.756Z,7.87
2019-01-03T15:13:48.007Z,7.27
2019-01-03T15:16:19.003Z,8.50
2019-01-03T15:18:50.442Z,10.30
2019-01-03T15:21:19.568Z,11.93
2019-01-03T15:23:49.497Z,9.03
2019-01-03T15:26:19.638Z,7.67
2019-01-03T15:28:51.308Z,11.90
2019-01-03T15:31:20.679Z,12.67
2019-01-03T15:33:49.963Z,7.63
2019-01-03T15:36:19.254Z,12.30
2019-01-03T15:38:48.576Z,11.20
2019-01-03T15:41:17.866Z,10.17
2019-01-03T15:43:47.279Z,12.67
2019-01-03T15:46:16.624Z,10.57
2019-01-03T15:48:45.886Z,8.93
2019-01-03T15:51:15.114Z,10.07
2019-01-03T15:53:44.352Z,7.87
2019-01-03T15:56:13.767Z,9.33
2019-01-03T15:58:43.190Z,9.30
2019-01-03T16:01:12.505Z,9.90
2019-01-03T16:03:41.822Z,8.40
2019-01-03T16:06:11.027Z,10.97
2019-01-03T16:08:40.264Z,8.87
2019-01-03T16:11:09.509Z,9.47
2019-01-03T16:13:38.813Z,10.13
2019-01-03T16:16:08.068Z,12.33
2019-01-03T16:18:37.369Z,10.07
2019-01-03T16:21:06.687Z,10.03
2019-01-03T16:23:35.963Z,15.00
2019-01-03T16:26:05.353Z,18.33
2019-01-03T16:28:34.503Z,13.90
2019-01-03T16:31:03.882Z,11.80
2019-01-03T16:33:33.276Z,13.23
2019-01-03T16:36:02.397Z,12.53
2019-01-03T16:38:31.617Z,12.13
2019-01-03T16:41:00.885Z,12.30
2019-01-03T16:43:30.140Z,13.20
2019-01-03T16:45:59.470Z,11.47
2019-01-03T16:48:28.768Z,14.70
2019-01-03T16:50:57.874Z,13.53
2019-01-03T16:53:27.177Z,14.77
2019-01-03T16:55:56.473Z,16.20
2019-01-03T16:58:25.692Z,14.70
2019-01-03T17:00:54.944Z,12.87
2019-01-03T17:03:24.264Z,15.80
2019-01-03T17:05:53.850Z,14.07
2019-01-03T17:08:23.095Z,10.47
2019-01-03T17:10:52.334Z,20.63
2019-01-03T17:13:21.621Z,12.30
2019-01-03T17:15:50.929Z,14.37
2019-01-03T17:18:20.277Z,11.93
2019-01-03T17:20:49.472Z,14.23
2019-01-03T17:23:18.767Z,14.17
2019-01-03T17:25:48.065Z,13.47
2019-01-03T17:28:17.230Z,15.07
2019-01-03T17:30:46.452Z,14.77
2019-01-03T17:33:15.753Z,12.83
2019-01-03T17:35:45.118Z,16.47
2019-01-03T17:38:14.464Z,13.30
2019-01-03T17:40:43.798Z,13.33
2019-01-03T17:43:13.053Z,16.67
2019-01-03T17:45:42.271Z,13.30
2019-01-03T17:48:11.422Z,14.47
2019-01-03T17:50:40.666Z,12.27
2019-01-03T17:53:10.049Z,9.60
2019-01-03T17:55:39.390Z,11.40
2019-01-03T17:58:08.693Z,15.37
2019-01-03T18:00:38.905Z,13.87
2019-01-03T18:03:08.129Z,12.30
2019-01-03T18:05:37.559Z,13.03
2019-01-03T18:08:06.827Z,12.27
2019-01-03T18:10:36.048Z,13.07
2019-01-03T18:13:05.361Z,16.47
2019-01-03T18:15:34.631Z,13.03
2019-01-03T18:18:03.883Z,15.03
2019-01-03T18:20:33.226Z,12.70
2019-01-03T18:23:02.579Z,11.60
2019-01-03T18:25:31.835Z,11.00
2019-01-03T18:28:01.160Z,13.60
2019-01-03T18:30:30.413Z,10.77
2019-01-03T18:32:59.653Z,13.33
2019-01-03T18:35:29.247Z,10.80
2019-01-03T18:37:58.581Z,12.60
2019-01-03T18:40:27.821Z,14.20
2019-01-03T18:42:57.098Z,10.03
2019-01-03T18:45:27.373Z,13.23
2019-01-03T18:47:56.501Z,11.27
2019-01-03T18:50:25.708Z,12.23
2019-01-03T18:52:54.947Z,9.17
2019-01-03T18:55:24.522Z,8.23
2019-01-03T18:57:53.811Z,8.00
2019-01-03T19:00:23.021Z,11.83
2019-01-03T19:02:52.231Z,11.00
2019-01-03T19:05:21.360Z,11.70
2019-01-03T19:07:50.538Z,10.27
2019-01-03T19:10:19.760Z,9.67
2019-01-03T19:12:48.953Z,10.53
2019-01-03T19:15:18.169Z,11.17
2019-01-03T19:17:47.431Z,11.07
2019-01-03T19:20:16.616Z,8.67
2019-01-03T19:22:45.858Z,11.37
2019-01-03T19:25:17.187Z,9.03
2019-01-03T19:27:46.404Z,10.83
2019-01-03T19:30:15.624Z,12.57
2019-01-03T19:32:44.889Z,10.53
2019-01-03T19:35:14.118Z,15.73
2019-01-03T19:37:43.406Z,12.97
2019-01-03T19:40:14.210Z,8.10
2019-01-03T19:42:44.924Z,14.13
2019-01-03T19:45:14.163Z,11.17
2019-01-03T19:47:43.436Z,9.73
2019-01-03T19:50:14.994Z,9.27
2019-01-03T19:52:44.193Z,8.83
2019-01-03T19:55:13.312Z,9.37
2019-01-03T19:57:42.518Z,11.40
2019-01-03T20:00:14.422Z,14.07
2019-01-03T20:02:43.644Z,11.73
2019-01-03T20:05:12.869Z,14.17
2019-01-03T20:07:42.461Z,9.37
2019-01-03T20:10:12.661Z,11.07
2019-01-03T20:12:41.839Z,10.70
2019-01-03T20:15:12.004Z,13.07
2019-01-03T20:17:41.127Z,11.47
2019-01-03T20:20:10.677Z,10.07
2019-01-03T20:22:39.829Z,9.50
2019-01-03T20:25:09.987Z,10.37
2019-01-03T20:27:39.121Z,13.73
2019-01-03T20:30:09.426Z,9.43
2019-01-03T20:32:38.714Z,13.47
2019-01-03T20:35:08.138Z,12.00
2019-01-03T20:37:37.417Z,9.53
2019-01-03T20:40:06.829Z,9.77
2019-01-03T20:42:36.059Z,13.30
2019-01-03T20:45:06.031Z,11.83
2019-01-03T20:47:35.257Z,13.07
2019-01-03T20:50:04.857Z,13.50
2019-01-03T20:52:34.131Z,9.27
2019-01-03T20:55:03.356Z,10.07
2019-01-03T20:57:32.573Z,15.70
2019-01-03T21:00:01.878Z,12.07
2019-01-03T21:02:31.157Z,13.50
2019-01-03T21:05:00.278Z,10.63
2019-01-03T21:07:29.586Z,9.10
2019-01-03T21:09:58.885Z,9.03
2019-01-03T21:12:28.158Z,9.60
2019-01-03T21:14:57.393Z,8.33
2019-01-03T21:17:29.728Z,9.90
2019-01-03T21:19:58.969Z,7.97
2019-01-03T21:22:28.139Z,11.00
2019-01-03T21:24:57.260Z,9.40
2019-01-03T21:27:26.524Z,11.47
2019-01-03T21:29:55.804Z,11.57
2019-01-03T21:32:24.997Z,10.03
2019-01-03T21:34:54.251Z,7.90
2019-01-03T21:37:23.518Z,7.03
2019-01-03T21:39:52.674Z,13.20
2019-01-03T21:42:21.951Z,6.60
2019-01-03T21:44:51.214Z,7.87
2019-01-03T21:47:20.390Z,6.10
2019-01-03T21:49:49.649Z,8.53
2019-01-03T21:52:18.886Z,7.50
2019-01-03T21:54:48.114Z,9.37
2019-01-03T21:57:17.397Z,9.67
2019-01-03T21:59:46.599Z,6.43
2019-01-03T22:02:15.903Z,8.57
2019-01-03T22:04:45.185Z,10.27
2019-01-03T22:07:14.370Z,8.97
2019-01-03T22:09:43.579Z,9.43
2019-01-03T22:12:12.696Z,7.50
2019-01-03T22:14:41.978Z,11.57
2019-01-03T22:17:11.182Z,8.60
2019-01-03T22:19:40.447Z,7.00
2019-01-03T22:22:09.663Z,7.23
2019-01-03T22:24:38.873Z,7.50
2019-01-03T22:27:08.409Z,6.50
2019-01-03T22:29:37.553Z,7.50
2019-01-03T22:32:06.833Z,7.67
2019-01-03T22:34:36.126Z,15.33
2019-01-03T22:37:05.415Z,8.70
2019-01-03T22:39:34.634Z,7.00
2019-01-03T22:42:03.898Z,7.53
2019-01-03T22:44:33.129Z,11.80
2019-01-03T22:47:02.557Z,11.73
2019-01-03T22:49:31.765Z,7.03
2019-01-03T22:52:01.054Z,12.47
2019-01-03T22:54:30.250Z,7.70
2019-01-03T22:56:59.760Z,6.03
2019-01-03T22:59:29.262Z,6.23
2019-01-03T23:01:58.441Z,9.93
2019-01-03T23:04:27.653Z,7.17
2019-01-03T23:06:56.865Z,8.60
2019-01-03T23:09:26.129Z,7.60
2019-01-03T23:11:55.406Z,9.60
2019-01-03T23:14:24.612Z,7.60
2019-01-03T23:16:54.039Z,8.50
2019-01-03T23:19:23.333Z,7.93
2019-01-03T23:21:52.561Z,9.97
2019-01-03T23:24:21.692Z,11.43
2019-01-03T23:26:50.883Z,12.13
2019-01-03T23:29:20.168Z,6.63
2019-01-03T23:31:49.455Z,9.87
2019-01-03T23:34:18.600Z,8.07
2019-01-03T23:36:48.060Z,8.10
2019-01-03T23:39:17.257Z,7.53
2019-01-03T23:41:46.463Z,8.97
2019-01-03T23:44:15.746Z,9.57
2019-01-03T23:46:45.060Z,10.37
2019-01-03T23:49:14.197Z,8.97
2019-01-03T23:51:43.378Z,7.73
2019-01-03T23:54:12.601Z,8.63
2019-01-03T23:56:42.053Z,6.77
2019-01-03T23:59:11.235Z,7.53
